ENVA

Trondheim/Vaernes

Airport
ICAO code
ENVA
Summary
ICAO Region
EUR
ICAO Territory
Location

Trondheim, Norway,

Elevation
56 ft
Coordinates
63° 27' 28" N , 10° 55' 26" E
KCC
Metar
Observation
ENVA 090620Z 08003KT 030V110 9999 VCTS FEW020CB SCT050 01/M01 Q0998 NOSIG RMK WIND 670FT 18005KT
Station
Trondheim / Vaernes
Date/Time
2023-02-09 06:20:00
Wind direction
80°
Wind speed
03 kts
Lowest cloud amount
few clouds
Temperature
1°C
Dew point
-1°C
Humidity
86%
QNH
998 hPa
Weather condition
in vicinity: thunderstorm

International airport serving Trondheim, Norway. Note that the only runway 09/27 is used.

Climatology

Temperate Marine climate/Oceanic climate (Köppen climate classification Cfb). Moderately cool summer and comparatively warm winter with a temperature range of only 14°C. Prevailing south-westerly winds from the Atlantic Ocean.

Runways

Designator Length Width Surface Rops
14/32 950 36 ASP No/No
13/31 1454 36 ASP No/No
9/27 2759 45 ASP Yes/Yes

Airport map

Aerial View

SKYbrary Partners:

Safety knowledge contributed by: